createdAt,value
2023-05-05T00:01:25.726Z,63.39
2023-05-05T00:03:52.578Z,63.12
2023-05-05T00:06:19.583Z,62.57
2023-05-05T00:08:46.846Z,63.36
2023-05-05T00:11:13.630Z,64.22
2023-05-05T00:13:40.350Z,64.41
2023-05-05T00:16:07.304Z,64.89
2023-05-05T00:18:34.235Z,64.99
2023-05-05T00:21:01.032Z,65.99
2023-05-05T00:23:27.818Z,66.06
2023-05-05T00:25:54.495Z,65.87
2023-05-05T00:28:21.125Z,66.10
2023-05-05T00:30:47.871Z,66.79
2023-05-05T00:33:15.059Z,66.56
2023-05-05T00:35:42.207Z,66.48
2023-05-05T00:38:09.425Z,66.84
2023-05-05T00:40:37.867Z,67.67
2023-05-05T00:43:05.118Z,67.43
2023-05-05T00:45:31.920Z,68.06
2023-05-05T00:48:00.518Z,68.25
2023-05-05T00:50:30.059Z,69.12
2023-05-05T00:53:00.735Z,69.35
2023-05-05T00:55:29.238Z,69.60
2023-05-05T00:57:57.791Z,70.32
2023-05-05T01:00:25.134Z,71.32
2023-05-05T01:02:52.600Z,71.99
2023-05-05T01:05:21.804Z,71.68
2023-05-05T01:08:06.556Z,71.58
2023-05-05T01:10:41.199Z,72.05
2023-05-05T01:13:31.529Z,71.59
2023-05-05T01:16:23.943Z,71.99
2023-05-05T01:19:09.624Z,71.89
2023-05-05T01:21:41.366Z,71.93
2023-05-05T01:24:29.668Z,71.79
2023-05-05T01:27:34.182Z,71.80
2023-05-05T01:30:26.220Z,72.03
2023-05-05T01:32:56.759Z,72.70
2023-05-05T01:35:31.834Z,72.51
2023-05-05T01:38:22.630Z,72.85
2023-05-05T01:40:59.717Z,72.44
2023-05-05T01:43:29.457Z,72.25
2023-05-05T01:45:57.307Z,72.40
2023-05-05T01:48:26.025Z,72.46
2023-05-05T01:50:53.319Z,72.30
2023-05-05T01:53:21.267Z,72.40
2023-05-05T01:55:50.414Z,73.42
2023-05-05T01:58:18.388Z,73.10
2023-05-05T02:00:46.849Z,73.36
2023-05-05T02:03:15.746Z,73.55
2023-05-05T02:05:47.105Z,73.64
2023-05-05T02:08:15.052Z,73.63
2023-05-05T02:10:43.464Z,74.03
2023-05-05T02:13:15.357Z,73.90
2023-05-05T02:15:43.200Z,73.91
2023-05-05T02:18:10.369Z,74.08
2023-05-05T02:20:41.061Z,73.90
2023-05-05T02:23:08.510Z,73.79
2023-05-05T02:25:41.918Z,73.59
2023-05-05T02:28:17.276Z,73.84
2023-05-05T02:30:47.200Z,73.72
2023-05-05T02:33:19.086Z,73.48
2023-05-05T02:35:47.331Z,73.06
2023-05-05T02:38:17.837Z,73.24
2023-05-05T02:40:50.245Z,74.07
2023-05-05T02:43:21.369Z,73.82
2023-05-05T02:45:48.436Z,74.91
2023-05-05T02:48:15.986Z,75.46
2023-05-05T02:50:42.619Z,75.60
2023-05-05T02:53:26.788Z,75.44
2023-05-05T02:56:16.225Z,75.40
2023-05-05T02:58:54.531Z,74.96
2023-05-05T03:01:46.487Z,75.35
2023-05-05T03:04:25.823Z,75.79
2023-05-05T03:06:58.273Z,75.73
2023-05-05T03:09:51.694Z,76.40
2023-05-05T03:12:22.362Z,76.63
2023-05-05T03:15:02.202Z,77.37
2023-05-05T03:17:31.770Z,77.33
2023-05-05T03:20:04.753Z,78.12
2023-05-05T03:22:37.824Z,77.32
2023-05-05T03:25:07.690Z,76.76
2023-05-05T03:27:34.371Z,77.12
2023-05-05T03:30:01.391Z,77.38
2023-05-05T03:32:29.020Z,77.15
2023-05-05T03:34:56.304Z,77.29
2023-05-05T03:37:29.052Z,76.90
2023-05-05T03:39:57.147Z,76.61
2023-05-05T03:42:23.817Z,75.77
2023-05-05T03:44:53.554Z,75.47
2023-05-05T03:47:24.525Z,76.34
2023-05-05T03:49:52.401Z,75.82
2023-05-05T03:52:19.286Z,75.73
2023-05-05T03:54:46.430Z,75.57
2023-05-05T03:57:13.069Z,76.70
2023-05-05T03:59:40.960Z,76.21
2023-05-05T04:02:08.562Z,76.48
2023-05-05T04:04:35.692Z,76.68
2023-05-05T04:07:02.929Z,75.89
2023-05-05T04:09:29.673Z,75.54
2023-05-05T04:11:56.700Z,75.60
2023-05-05T04:14:24.412Z,75.91
2023-05-05T04:16:51.752Z,75.83
2023-05-05T04:19:18.962Z,75.64
2023-05-05T04:21:46.162Z,75.49
2023-05-05T04:24:13.560Z,76.57
2023-05-05T04:26:40.261Z,76.50
2023-05-05T04:29:06.982Z,76.83
2023-05-05T04:31:33.905Z,76.29
2023-05-05T04:34:00.664Z,76.34
2023-05-05T04:36:27.448Z,75.80
2023-05-05T04:38:54.507Z,74.98
2023-05-05T04:41:21.463Z,75.48
2023-05-05T04:43:48.776Z,75.71
2023-05-05T04:46:15.772Z,74.78
2023-05-05T04:48:42.890Z,74.36
2023-05-05T04:51:09.680Z,73.85
2023-05-05T04:53:37.562Z,73.41
2023-05-05T04:56:04.353Z,73.10
2023-05-05T04:58:31.253Z,71.75
2023-05-05T05:00:58.491Z,71.69
2023-05-05T05:03:25.364Z,71.73
2023-05-05T05:05:52.597Z,71.31
2023-05-05T05:08:19.652Z,71.03
2023-05-05T05:10:46.287Z,70.93
2023-05-05T05:13:13.224Z,71.08
2023-05-05T05:15:40.722Z,70.39
2023-05-05T05:18:07.540Z,69.92
2023-05-05T05:20:34.300Z,69.43
2023-05-05T05:23:02.423Z,69.31
2023-05-05T05:25:30.796Z,68.45
2023-05-05T05:28:08.981Z,67.77
2023-05-05T05:30:41.678Z,67.13
2023-05-05T05:33:10.781Z,66.91
2023-05-05T05:35:37.455Z,66.76
2023-05-05T05:38:04.155Z,66.38
2023-05-05T05:40:31.570Z,65.90
2023-05-05T05:42:59.062Z,66.10
2023-05-05T05:45:26.727Z,65.95
2023-05-05T05:47:53.449Z,65.47
2023-05-05T05:50:20.933Z,65.43
2023-05-05T05:52:47.821Z,64.77
2023-05-05T05:55:15.386Z,64.76
2023-05-05T05:57:42.674Z,64.50
2023-05-05T06:00:11.930Z,63.79
2023-05-05T06:02:38.633Z,63.61
2023-05-05T06:05:09.183Z,62.96
2023-05-05T06:07:36.435Z,62.87
2023-05-05T06:10:18.545Z,62.16
2023-05-05T06:12:50.847Z,62.15
2023-05-05T06:15:18.479Z,60.98
2023-05-05T06:17:45.626Z,60.78
2023-05-05T06:20:13.829Z,60.79
2023-05-05T06:22:40.766Z,60.49
2023-05-05T06:25:08.046Z,59.06
2023-05-05T06:27:35.205Z,58.40
2023-05-05T06:30:01.858Z,58.02
2023-05-05T06:32:28.441Z,57.92
2023-05-05T06:34:55.073Z,57.08
2023-05-05T06:37:21.970Z,56.65
2023-05-05T06:39:49.109Z,56.27
2023-05-05T06:42:15.752Z,56.00
2023-05-05T06:44:42.305Z,55.46
2023-05-05T06:47:08.980Z,55.14
2023-05-05T06:49:35.641Z,54.28
2023-05-05T06:52:02.390Z,53.53
2023-05-05T06:54:29.041Z,51.72
2023-05-05T06:56:57.530Z,51.08
2023-05-05T06:59:26.130Z,50.49
2023-05-05T07:01:52.748Z,49.29
2023-05-05T07:04:19.463Z,49.46
2023-05-05T07:06:46.140Z,48.07
2023-05-05T07:09:13.217Z,46.98
2023-05-05T07:11:40.601Z,47.24
2023-05-05T07:14:07.135Z,46.37
2023-05-05T07:16:34.735Z,46.00
2023-05-05T07:19:01.581Z,46.02
2023-05-05T07:21:28.244Z,45.78
2023-05-05T07:23:54.857Z,45.16
2023-05-05T07:26:21.496Z,44.46
2023-05-05T07:28:48.124Z,45.04
2023-05-05T07:31:14.804Z,44.55
2023-05-05T07:33:42.142Z,43.78
2023-05-05T07:36:08.976Z,43.19
2023-05-05T07:38:37.944Z,42.72
2023-05-05T07:41:04.708Z,42.47
2023-05-05T07:43:31.293Z,41.88
2023-05-05T07:45:58.035Z,41.72
2023-05-05T07:48:24.648Z,40.86
2023-05-05T07:50:52.464Z,40.98
2023-05-05T07:53:19.153Z,40.67
2023-05-05T07:55:46.218Z,40.93
2023-05-05T07:58:12.823Z,41.04
2023-05-05T08:00:39.742Z,40.19
2023-05-05T08:03:07.188Z,39.66
2023-05-05T08:05:36.016Z,38.82
2023-05-05T08:08:03.611Z,37.45
2023-05-05T08:10:30.159Z,37.02
2023-05-05T08:12:56.797Z,36.34
2023-05-05T08:15:23.423Z,36.28
2023-05-05T08:17:52.101Z,36.59
2023-05-05T08:20:20.349Z,36.45
2023-05-05T08:22:47.556Z,36.99
2023-05-05T08:25:14.693Z,36.97
2023-05-05T08:27:42.524Z,36.12
2023-05-05T08:30:10.093Z,36.02
2023-05-05T08:32:38.320Z,35.15
2023-05-05T08:35:06.557Z,34.94
2023-05-05T08:37:33.810Z,34.88
2023-05-05T08:40:00.524Z,35.16
2023-05-05T08:42:38.159Z,35.21
2023-05-05T08:45:07.460Z,35.30
2023-05-05T08:47:35.900Z,34.39
2023-05-05T08:50:03.316Z,34.25
2023-05-05T08:52:40.495Z,33.03
2023-05-05T08:55:17.981Z,32.12
2023-05-05T08:57:57.250Z,31.86
2023-05-05T09:00:26.450Z,31.39
2023-05-05T09:02:56.318Z,31.21
2023-05-05T09:05:23.843Z,30.24
2023-05-05T09:07:51.065Z,29.91
2023-05-05T09:10:18.288Z,29.78
2023-05-05T09:12:45.163Z,29.09
2023-05-05T09:15:13.358Z,28.68
2023-05-05T09:17:40.858Z,29.33
2023-05-05T09:20:09.727Z,28.33
2023-05-05T09:22:36.668Z,28.58
2023-05-05T09:25:05.077Z,28.39
2023-05-05T09:27:36.354Z,27.49
2023-05-05T09:30:04.362Z,27.32
2023-05-05T09:32:42.565Z,28.10
2023-05-05T09:35:09.641Z,27.61
2023-05-05T09:37:37.544Z,26.78
2023-05-05T09:40:05.434Z,27.60
2023-05-05T09:42:32.248Z,26.92
2023-05-05T09:45:00.019Z,26.55
2023-05-05T09:47:36.733Z,26.83
2023-05-05T09:50:07.434Z,26.38
2023-05-05T09:52:34.614Z,25.61
2023-05-05T09:55:02.398Z,25.98
2023-05-05T09:57:33.716Z,25.67
2023-05-05T10:00:02.247Z,25.44
2023-05-05T10:02:32.970Z,25.66
2023-05-05T10:05:29.376Z,25.72
2023-05-05T10:08:13.593Z,24.99
2023-05-05T10:10:50.937Z,24.59
2023-05-05T10:13:20.760Z,24.13
2023-05-05T10:15:51.052Z,23.52
2023-05-05T10:18:28.638Z,24.99
2023-05-05T10:21:01.201Z,24.32
2023-05-05T10:23:49.539Z,25.32
2023-05-05T10:26:19.827Z,25.62
2023-05-05T10:28:57.033Z,24.42
2023-05-05T10:31:33.147Z,24.00
2023-05-05T10:34:05.950Z,24.58
2023-05-05T10:36:34.116Z,25.91
2023-05-05T10:39:01.609Z,25.96
2023-05-05T10:41:30.810Z,27.60
2023-05-05T10:43:58.884Z,26.65
2023-05-05T10:46:28.109Z,28.10
2023-05-05T10:49:04.880Z,28.02
2023-05-05T10:52:01.472Z,27.73
2023-05-05T10:54:45.580Z,26.45
2023-05-05T10:57:14.684Z,26.30
2023-05-05T10:59:44.291Z,26.79
2023-05-05T11:02:28.500Z,26.82
2023-05-05T11:05:14.134Z,25.06
2023-05-05T11:07:42.571Z,23.96
2023-05-05T11:10:11.408Z,23.65
2023-05-05T11:13:04.646Z,22.35
2023-05-05T11:15:31.444Z,22.88
2023-05-05T11:17:59.905Z,24.20
2023-05-05T11:20:36.023Z,25.80
2023-05-05T11:23:02.587Z,23.68
2023-05-05T11:25:51.412Z,21.50
2023-05-05T11:28:19.502Z,21.10
2023-05-05T11:30:55.748Z,22.67
2023-05-05T11:33:38.193Z,22.14
2023-05-05T11:36:12.791Z,20.65
2023-05-05T11:38:39.387Z,19.97
2023-05-05T11:41:27.807Z,20.87
2023-05-05T11:44:19.546Z,18.19
2023-05-05T11:46:53.197Z,18.08
2023-05-05T11:49:31.743Z,18.54
2023-05-05T11:52:02.374Z,18.36
2023-05-05T11:54:29.931Z,17.94
2023-05-05T11:57:10.508Z,19.83
2023-05-05T11:59:49.969Z,19.11
2023-05-05T12:02:20.214Z,22.01
2023-05-05T12:04:47.957Z,20.33
2023-05-05T12:07:19.227Z,22.52
2023-05-05T12:09:47.233Z,22.62
2023-05-05T12:12:14.726Z,20.81
2023-05-05T12:14:54.244Z,20.02
2023-05-05T12:17:22.720Z,22.44
2023-05-05T12:19:55.039Z,20.90
2023-05-05T12:22:25.996Z,19.21
2023-05-05T12:24:57.752Z,19.17
2023-05-05T12:27:26.346Z,18.93
2023-05-05T12:29:56.914Z,21.72
2023-05-05T12:32:30.364Z,19.86
2023-05-05T12:34:57.552Z,19.69
2023-05-05T12:37:26.266Z,18.77
2023-05-05T12:39:56.147Z,19.24
2023-05-05T12:42:23.286Z,22.70
2023-05-05T12:44:49.922Z,22.26
2023-05-05T12:47:31.482Z,24.31
2023-05-05T12:50:00.229Z,24.10
2023-05-05T12:52:45.707Z,22.48
2023-05-05T12:55:12.617Z,21.29
2023-05-05T12:57:39.681Z,20.07
2023-05-05T13:00:15.494Z,21.38
2023-05-05T13:02:42.300Z,23.30
2023-05-05T13:05:09.264Z,21.61
2023-05-05T13:07:36.595Z,20.49
2023-05-05T13:10:09.501Z,22.17
2023-05-05T13:12:36.732Z,21.15
2023-05-05T13:15:03.874Z,20.47
2023-05-05T13:17:31.471Z,21.21
2023-05-05T13:19:59.450Z,22.85
2023-05-05T13:22:28.317Z,24.39
2023-05-05T13:24:54.862Z,24.50
2023-05-05T13:27:21.818Z,24.49
2023-05-05T13:29:48.546Z,22.91
2023-05-05T13:32:15.328Z,22.42
2023-05-05T13:34:43.563Z,20.13
2023-05-05T13:37:10.235Z,19.91
2023-05-05T13:39:37.014Z,19.49
2023-05-05T13:42:03.886Z,20.43
2023-05-05T13:44:30.293Z,21.90
2023-05-05T13:46:57.598Z,20.09
2023-05-05T13:49:24.220Z,18.83
2023-05-05T13:51:50.951Z,17.75
2023-05-05T13:54:17.483Z,19.51
2023-05-05T13:56:44.562Z,19.50
2023-05-05T13:59:11.122Z,21.66
2023-05-05T14:01:38.100Z,22.16
2023-05-05T14:04:05.710Z,21.84
2023-05-05T14:06:33.580Z,21.56
2023-05-05T14:09:00.536Z,21.59
2023-05-05T14:11:27.501Z,22.02
2023-05-05T14:13:54.099Z,22.33
2023-05-05T14:16:20.818Z,23.66
2023-05-05T14:18:47.499Z,23.83
2023-05-05T14:21:14.446Z,22.52
2023-05-05T14:23:41.131Z,21.07
2023-05-05T14:26:09.004Z,20.73
2023-05-05T14:28:36.087Z,21.22
2023-05-05T14:31:02.781Z,21.24
2023-05-05T14:33:29.330Z,20.77
2023-05-05T14:35:56.053Z,20.33
2023-05-05T14:38:22.753Z,20.02
2023-05-05T14:40:49.583Z,20.31
2023-05-05T14:43:16.067Z,22.58
2023-05-05T14:45:44.130Z,24.77
2023-05-05T14:48:12.074Z,23.28
2023-05-05T14:50:40.607Z,23.72
2023-05-05T14:53:07.303Z,24.25
2023-05-05T14:55:34.099Z,24.30
2023-05-05T14:58:00.802Z,24.76
2023-05-05T15:00:27.808Z,24.19
2023-05-05T15:02:54.489Z,23.30
2023-05-05T15:05:21.293Z,22.43
2023-05-05T15:07:47.992Z,22.89
2023-05-05T15:10:14.976Z,24.15
2023-05-05T15:12:42.860Z,23.57
2023-05-05T15:15:10.347Z,23.65
2023-05-05T15:17:38.796Z,24.80
2023-05-05T15:20:06.711Z,24.94
2023-05-05T15:22:33.544Z,24.43
2023-05-05T15:25:00.522Z,25.69
2023-05-05T15:27:27.325Z,25.37
2023-05-05T15:29:55.109Z,26.32
2023-05-05T15:32:22.105Z,26.83
2023-05-05T15:34:50.394Z,26.67
2023-05-05T15:37:17.331Z,26.93
2023-05-05T15:39:44.029Z,28.43
2023-05-05T15:42:10.704Z,28.24
2023-05-05T15:44:37.558Z,28.86
2023-05-05T15:47:04.926Z,28.03
2023-05-05T15:49:31.685Z,28.51
2023-05-05T15:51:58.396Z,28.31
2023-05-05T15:54:25.139Z,28.86
2023-05-05T15:56:51.793Z,29.58
2023-05-05T15:59:19.419Z,29.71
2023-05-05T16:01:46.968Z,30.04
2023-05-05T16:04:14.207Z,30.33
2023-05-05T16:06:40.956Z,29.98
2023-05-05T16:09:07.945Z,30.15
2023-05-05T16:11:34.959Z,29.40
2023-05-05T16:14:01.642Z,30.54
2023-05-05T16:16:28.451Z,30.84
2023-05-05T16:18:55.375Z,31.12
2023-05-05T16:21:22.047Z,31.18
2023-05-05T16:23:48.799Z,30.64
2023-05-05T16:26:15.360Z,29.66
2023-05-05T16:28:42.172Z,30.11
2023-05-05T16:31:13.504Z,31.00
2023-05-05T16:33:41.244Z,31.33
2023-05-05T16:36:12.431Z,31.10
2023-05-05T16:38:41.809Z,30.86
2023-05-05T16:41:13.827Z,30.97
2023-05-05T16:43:40.757Z,31.21
2023-05-05T16:46:07.647Z,31.73
2023-05-05T16:48:34.523Z,30.73
2023-05-05T16:51:01.253Z,30.79
2023-05-05T16:53:28.067Z,31.09
2023-05-05T16:55:54.761Z,31.04
2023-05-05T16:58:25.342Z,30.99
2023-05-05T17:00:52.678Z,31.25
2023-05-05T17:03:20.219Z,32.10
2023-05-05T17:05:49.784Z,32.25
2023-05-05T17:08:17.163Z,32.24
2023-05-05T17:10:45.299Z,32.47
2023-05-05T17:13:14.106Z,33.69
2023-05-05T17:15:41.306Z,32.98
2023-05-05T17:18:12.807Z,33.19
2023-05-05T17:20:44.165Z,33.01
2023-05-05T17:23:10.792Z,33.22
2023-05-05T17:25:37.465Z,32.99
2023-05-05T17:28:04.280Z,33.00
2023-05-05T17:30:30.831Z,33.26
2023-05-05T17:32:57.560Z,33.81
2023-05-05T17:35:24.194Z,34.00
2023-05-05T17:37:50.797Z,34.07
2023-05-05T17:40:17.477Z,34.41
2023-05-05T17:42:44.278Z,33.88
2023-05-05T17:45:11.472Z,34.14
2023-05-05T17:47:38.675Z,34.18
2023-05-05T17:50:05.928Z,33.82
2023-05-05T17:52:32.361Z,34.25
2023-05-05T17:54:58.940Z,34.60
2023-05-05T17:57:25.599Z,35.12
2023-05-05T17:59:53.709Z,34.95
2023-05-05T18:02:20.825Z,34.97
2023-05-05T18:04:47.717Z,35.58
2023-05-05T18:07:14.838Z,35.70
2023-05-05T18:09:41.559Z,35.95
2023-05-05T18:12:08.325Z,35.78
2023-05-05T18:14:34.997Z,35.92
2023-05-05T18:17:01.714Z,36.59
2023-05-05T18:19:28.387Z,36.12
2023-05-05T18:21:55.012Z,36.28
2023-05-05T18:24:21.895Z,36.17
2023-05-05T18:26:50.489Z,36.76
2023-05-05T18:29:21.866Z,36.68
2023-05-05T18:31:51.681Z,36.79
2023-05-05T18:34:19.478Z,37.31
2023-05-05T18:36:46.782Z,37.63
2023-05-05T18:39:13.625Z,37.85
2023-05-05T18:41:40.912Z,37.90
2023-05-05T18:44:07.525Z,38.15
2023-05-05T18:46:34.145Z,38.16
2023-05-05T18:49:00.896Z,38.99
2023-05-05T18:51:28.411Z,38.72
2023-05-05T18:53:55.237Z,39.30
2023-05-05T18:56:22.055Z,39.63
2023-05-05T18:58:49.456Z,39.71
2023-05-05T19:01:16.401Z,40.02
2023-05-05T19:03:47.988Z,40.10
2023-05-05T19:06:15.895Z,40.05
2023-05-05T19:08:43.301Z,40.23
2023-05-05T19:11:10.165Z,40.19
2023-05-05T19:16:08.715Z,40.86
2023-05-05T19:18:35.694Z,41.15
2023-05-05T19:21:02.595Z,41.23
2023-05-05T19:23:29.251Z,41.77
2023-05-05T19:25:55.944Z,41.31
2023-05-05T19:28:22.643Z,42.05
2023-05-05T19:30:49.365Z,41.99
2023-05-05T19:33:16.511Z,41.96
2023-05-05T19:35:43.637Z,42.46
2023-05-05T19:38:10.844Z,42.77
2023-05-05T19:40:40.942Z,42.64
2023-05-05T19:43:07.997Z,43.34
2023-05-05T19:45:34.925Z,44.50
2023-05-05T19:48:02.305Z,44.88
2023-05-05T19:50:30.672Z,45.14
2023-05-05T19:52:57.953Z,45.77
2023-05-05T19:55:24.545Z,46.07
2023-05-05T19:57:51.356Z,47.13
2023-05-05T20:00:19.555Z,47.53
2023-05-05T20:02:46.440Z,47.95
2023-05-05T20:05:14.948Z,47.69
2023-05-05T20:07:44.276Z,48.27
2023-05-05T20:10:13.072Z,48.53
2023-05-05T20:12:42.341Z,48.97
2023-05-05T20:15:10.892Z,48.75
2023-05-05T20:17:37.713Z,48.74
2023-05-05T20:20:04.857Z,48.49
2023-05-05T20:22:31.692Z,48.88
2023-05-05T20:24:58.368Z,49.13
2023-05-05T20:27:26.625Z,50.09
2023-05-05T20:29:54.022Z,50.47
2023-05-05T20:32:20.829Z,50.74
2023-05-05T20:34:48.140Z,51.50
2023-05-05T20:37:14.787Z,52.40
2023-05-05T20:39:43.703Z,53.04
2023-05-05T20:42:10.850Z,53.32
2023-05-05T20:44:37.737Z,53.77
2023-05-05T20:47:04.648Z,54.58
2023-05-05T20:49:31.447Z,55.38
2023-05-05T20:51:58.666Z,55.54
2023-05-05T20:54:25.290Z,56.04
2023-05-05T20:56:53.128Z,56.05
2023-05-05T20:59:19.745Z,56.22
2023-05-05T21:01:46.438Z,56.62
2023-05-05T21:04:13.052Z,56.52
2023-05-05T21:06:39.668Z,56.21
2023-05-05T21:09:06.725Z,56.61
2023-05-05T21:11:33.494Z,56.59
2023-05-05T21:14:00.050Z,56.65
2023-05-05T21:16:26.753Z,56.77
2023-05-05T21:18:53.483Z,56.96
2023-05-05T21:21:20.251Z,57.55
2023-05-05T21:23:47.852Z,57.12
2023-05-05T21:26:14.546Z,57.01
2023-05-05T21:28:41.479Z,57.65
2023-05-05T21:31:21.046Z,58.04
2023-05-05T21:33:48.952Z,58.50
2023-05-05T21:36:17.448Z,58.60
2023-05-05T21:38:44.057Z,58.43
2023-05-05T21:41:10.691Z,58.40
2023-05-05T21:43:37.257Z,58.23
2023-05-05T21:46:05.408Z,58.58
2023-05-05T21:48:32.631Z,58.48
2023-05-05T21:50:59.599Z,58.25
2023-05-05T21:53:26.388Z,58.40
2023-05-05T21:55:52.983Z,57.90
2023-05-05T21:58:19.572Z,57.78
2023-05-05T22:00:49.376Z,57.97
2023-05-05T22:03:16.271Z,58.20
2023-05-05T22:05:43.174Z,58.33
2023-05-05T22:08:09.948Z,58.19
2023-05-05T22:10:36.635Z,57.73
2023-05-05T22:13:03.400Z,58.28
2023-05-05T22:15:35.708Z,57.72
2023-05-05T22:18:09.714Z,57.37
2023-05-05T22:20:37.134Z,57.96
2023-05-05T22:23:03.792Z,57.97
2023-05-05T22:25:30.508Z,58.27
2023-05-05T22:27:57.137Z,57.94
2023-05-05T22:30:23.806Z,58.00
2023-05-05T22:32:50.412Z,58.01
2023-05-05T22:35:17.739Z,58.32
2023-05-05T22:37:44.582Z,58.17
2023-05-05T22:40:12.840Z,58.00
2023-05-05T22:42:39.735Z,58.31
2023-05-05T22:45:07.394Z,58.35
2023-05-05T22:47:34.357Z,57.98
2023-05-05T22:50:01.120Z,57.96
2023-05-05T22:52:28.913Z,58.41
2023-05-05T22:54:56.046Z,58.03
2023-05-05T22:57:22.776Z,58.00
2023-05-05T22:59:50.091Z,58.18
2023-05-05T23:02:16.726Z,58.62
2023-05-05T23:04:44.979Z,58.92
2023-05-05T23:07:12.745Z,59.36
2023-05-05T23:09:39.692Z,59.07
2023-05-05T23:12:06.721Z,59.01
2023-05-05T23:14:33.461Z,59.05
2023-05-05T23:17:00.269Z,58.92
2023-05-05T23:19:28.972Z,59.13
2023-05-05T23:21:55.681Z,59.54
2023-05-05T23:24:22.332Z,60.11
2023-05-05T23:26:48.933Z,60.62
2023-05-05T23:29:15.653Z,60.77
2023-05-05T23:31:42.194Z,60.54
2023-05-05T23:34:08.834Z,60.37
2023-05-05T23:36:35.514Z,60.43
2023-05-05T23:39:02.088Z,60.48
2023-05-05T23:41:28.837Z,60.37
2023-05-05T23:43:56.389Z,60.66
2023-05-05T23:46:23.981Z,60.56
2023-05-05T23:48:51.215Z,61.17
2023-05-05T23:51:17.991Z,61.41
2023-05-05T23:53:44.632Z,61.63
2023-05-05T23:56:11.587Z,61.50
2023-05-05T23:58:38.234Z,61.34
